sensor_id;sensor_type;location;lat;lon;timestamp;pressure;altitude;pressure_sealevel;temperature
71807;BMP280;59655;42.590;23.364;2023-04-16T12:56:34;90804.59;;;14.27
71807;BMP280;59655;42.590;23.364;2023-04-16T12:59:00;90801.22;;;14.26
71807;BMP280;59655;42.590;23.364;2023-04-16T13:01:26;90795.53;;;14.20
71807;BMP280;59655;42.590;23.364;2023-04-16T13:03:51;90794.94;;;14.10
71807;BMP280;59655;42.590;23.364;2023-04-16T13:06:17;90795.50;;;14.09
71807;BMP280;59655;42.590;23.364;2023-04-16T13:08:43;90795.81;;;14.03
71807;BMP280;59655;42.590;23.364;2023-04-16T13:11:09;90794.16;;;13.98
71807;BMP280;59655;42.590;23.364;2023-04-16T13:13:35;90795.31;;;13.95
71807;BMP280;59655;42.590;23.364;2023-04-16T13:16:00;90801.81;;;13.92
71807;BMP280;59655;42.590;23.364;2023-04-16T13:18:28;90793.91;;;13.94
71807;BMP280;59655;42.590;23.364;2023-04-16T13:20:54;90791.63;;;14.00
71807;BMP280;59655;42.590;23.364;2023-04-16T13:23:20;90795.81;;;14.03
71807;BMP280;59655;42.590;23.364;2023-04-16T13:25:45;90795.25;;;14.04
71807;BMP280;59655;42.590;23.364;2023-04-16T13:28:10;90796.47;;;13.92
71807;BMP280;59655;42.590;23.364;2023-04-16T13:30:36;90793.03;;;13.79
71807;BMP280;59655;42.590;23.364;2023-04-16T13:33:01;90790.97;;;13.78
71807;BMP280;59655;42.590;23.364;2023-04-16T13:35:28;90784.75;;;13.85
71807;BMP280;59655;42.590;23.364;2023-04-16T13:37:54;90780.84;;;13.76
71807;BMP280;59655;42.590;23.364;2023-04-16T13:40:19;90771.16;;;13.81
71807;BMP280;59655;42.590;23.364;2023-04-16T13:42:44;90770.38;;;13.90
71807;BMP280;59655;42.590;23.364;2023-04-16T13:45:10;90773.13;;;13.92
71807;BMP280;59655;42.590;23.364;2023-04-16T13:47:39;90760.19;;;13.98
71807;BMP280;59655;42.590;23.364;2023-04-16T13:50:04;90768.09;;;13.96
71807;BMP280;59655;42.590;23.364;2023-04-16T13:52:30;90769.03;;;14.01
71807;BMP280;59655;42.590;23.364;2023-04-16T13:54:55;90771.69;;;14.01
71807;BMP280;59655;42.590;23.364;2023-04-16T13:57:21;90790.22;;;13.99
71807;BMP280;59655;42.590;23.364;2023-04-16T13:59:46;90788.56;;;13.94
71807;BMP280;59655;42.590;23.364;2023-04-16T14:02:12;90797.53;;;13.98
71807;BMP280;59655;42.590;23.364;2023-04-16T14:04:38;90795.69;;;14.01
71807;BMP280;59655;42.590;23.364;2023-04-16T14:07:04;90790.69;;;13.95
71807;BMP280;59655;42.590;23.364;2023-04-16T14:09:29;90796.72;;;13.96
71807;BMP280;59655;42.590;23.364;2023-04-16T14:11:55;90801.91;;;13.94
71807;BMP280;59655;42.590;23.364;2023-04-16T14:14:20;90788.00;;;13.95
71807;BMP280;59655;42.590;23.364;2023-04-16T14:16:46;90785.03;;;14.01
71807;BMP280;59655;42.590;23.364;2023-04-16T14:19:11;90782.50;;;14.15
71807;BMP280;59655;42.590;23.364;2023-04-16T14:21:38;90787.03;;;14.12
71807;BMP280;59655;42.590;23.364;2023-04-16T14:24:04;90791.66;;;14.12
71807;BMP280;59655;42.590;23.364;2023-04-16T14:26:29;90798.41;;;14.13
71807;BMP280;59655;42.590;23.364;2023-04-16T14:28:55;90799.81;;;14.14
71807;BMP280;59655;42.590;23.364;2023-04-16T14:31:20;90797.22;;;14.04
71807;BMP280;59655;42.590;23.364;2023-04-16T14:33:46;90821.44;;;13.96
71807;BMP280;59655;42.590;23.364;2023-04-16T14:36:11;90813.75;;;13.91
71807;BMP280;59655;42.590;23.364;2023-04-16T14:38:37;90818.56;;;13.82
71807;BMP280;59655;42.590;23.364;2023-04-16T14:41:02;90821.56;;;13.77
71807;BMP280;59655;42.590;23.364;2023-04-16T14:43:28;90824.25;;;13.77
71807;BMP280;59655;42.590;23.364;2023-04-16T14:45:53;90827.22;;;13.71
71807;BMP280;59655;42.590;23.364;2023-04-16T14:48:18;90833.56;;;13.66
71807;BMP280;59655;42.590;23.364;2023-04-16T14:50:44;90837.34;;;13.63
71807;BMP280;59655;42.590;23.364;2023-04-16T14:53:10;90831.88;;;13.61
71807;BMP280;59655;42.590;23.364;2023-04-16T14:55:36;90844.03;;;13.52
71807;BMP280;59655;42.590;23.364;2023-04-16T14:58:01;90846.41;;;13.48
71807;BMP280;59655;42.590;23.364;2023-04-16T15:00:27;90841.47;;;13.54
71807;BMP280;59655;42.590;23.364;2023-04-16T15:02:53;90843.56;;;13.56
71807;BMP280;59655;42.590;23.364;2023-04-16T15:05:18;90845.31;;;13.42
71807;BMP280;59655;42.590;23.364;2023-04-16T15:07:44;90841.88;;;13.29
71807;BMP280;59655;42.590;23.364;2023-04-16T15:10:11;90847.22;;;13.29
71807;BMP280;59655;42.590;23.364;2023-04-16T15:12:37;90849.47;;;13.23
71807;BMP280;59655;42.590;23.364;2023-04-16T15:15:04;90858.19;;;13.14
71807;BMP280;59655;42.590;23.364;2023-04-16T15:17:30;90856.97;;;13.05
71807;BMP280;59655;42.590;23.364;2023-04-16T15:19:56;90861.13;;;13.18
71807;BMP280;59655;42.590;23.364;2023-04-16T15:22:21;90853.56;;;13.14
71807;BMP280;59655;42.590;23.364;2023-04-16T15:24:47;90866.94;;;13.05
71807;BMP280;59655;42.590;23.364;2023-04-16T15:27:13;90861.22;;;12.99
71807;BMP280;59655;42.590;23.364;2023-04-16T15:29:39;90858.97;;;12.95
71807;BMP280;59655;42.590;23.364;2023-04-16T15:32:05;90863.56;;;13.04
71807;BMP280;59655;42.590;23.364;2023-04-16T15:34:31;90863.03;;;12.96
71807;BMP280;59655;42.590;23.364;2023-04-16T15:36:56;90873.06;;;13.07
71807;BMP280;59655;42.590;23.364;2023-04-16T15:39:22;90870.97;;;13.15
71807;BMP280;59655;42.590;23.364;2023-04-16T15:41:47;90866.59;;;13.20
71807;BMP280;59655;42.590;23.364;2023-04-16T15:44:12;90871.41;;;13.12
71807;BMP280;59655;42.590;23.364;2023-04-16T15:46:38;90873.50;;;13.13
71807;BMP280;59655;42.590;23.364;2023-04-16T15:49:03;90873.00;;;12.86
71807;BMP280;59655;42.590;23.364;2023-04-16T15:51:29;90870.75;;;12.92
71807;BMP280;59655;42.590;23.364;2023-04-16T15:53:56;90869.94;;;12.80
71807;BMP280;59655;42.590;23.364;2023-04-16T15:56:22;90867.84;;;12.78
71807;BMP280;59655;42.590;23.364;2023-04-16T15:58:48;90874.88;;;12.64
71807;BMP280;59655;42.590;23.364;2023-04-16T16:01:13;90874.47;;;12.58
71807;BMP280;59655;42.590;23.364;2023-04-16T16:03:38;90879.66;;;12.65
71807;BMP280;59655;42.590;23.364;2023-04-16T16:06:04;90876.69;;;12.71
71807;BMP280;59655;42.590;23.364;2023-04-16T16:08:33;90871.94;;;12.60
71807;BMP280;59655;42.590;23.364;2023-04-16T16:11:00;90874.03;;;12.71
71807;BMP280;59655;42.590;23.364;2023-04-16T16:13:26;90875.00;;;12.66
71807;BMP280;59655;42.590;23.364;2023-04-16T16:15:52;90868.84;;;12.63
71807;BMP280;59655;42.590;23.364;2023-04-16T16:18:17;90869.00;;;12.65
71807;BMP280;59655;42.590;23.364;2023-04-16T16:20:43;90870.94;;;12.55
71807;BMP280;59655;42.590;23.364;2023-04-16T16:23:08;90861.84;;;12.58
71807;BMP280;59655;42.590;23.364;2023-04-16T16:25:34;90864.53;;;12.48
71807;BMP280;59655;42.590;23.364;2023-04-16T16:27:59;90865.50;;;12.34
71807;BMP280;59655;42.590;23.364;2023-04-16T16:30:25;90861.16;;;12.38
71807;BMP280;59655;42.590;23.364;2023-04-16T16:32:52;90865.09;;;12.37
71807;BMP280;59655;42.590;23.364;2023-04-16T16:35:17;90870.13;;;12.43
71807;BMP280;59655;42.590;23.364;2023-04-16T16:37:43;90869.59;;;12.44
71807;BMP280;59655;42.590;23.364;2023-04-16T16:40:08;90868.03;;;12.32
71807;BMP280;59655;42.590;23.364;2023-04-16T16:42:34;90874.47;;;12.38
71807;BMP280;59655;42.590;23.364;2023-04-16T16:45:00;90875.84;;;12.39
71807;BMP280;59655;42.590;23.364;2023-04-16T16:47:30;90878.81;;;12.34
71807;BMP280;59655;42.590;23.364;2023-04-16T16:49:56;90873.06;;;12.37
71807;BMP280;59655;42.590;23.364;2023-04-16T16:52:22;90876.41;;;12.18
71807;BMP280;59655;42.590;23.364;2023-04-16T16:54:48;90882.28;;;12.07
71807;BMP280;59655;42.590;23.364;2023-04-16T16:57:14;90878.66;;;12.12
71807;BMP280;59655;42.590;23.364;2023-04-16T16:59:39;90878.25;;;12.25
71807;BMP280;59655;42.590;23.364;2023-04-16T17:02:05;90888.59;;;12.12
71807;BMP280;59655;42.590;23.364;2023-04-16T17:04:31;90895.47;;;12.15
71807;BMP280;59655;42.590;23.364;2023-04-16T17:06:56;90889.72;;;12.18
71807;BMP280;59655;42.590;23.364;2023-04-16T17:09:22;90884.94;;;12.17
71807;BMP280;59655;42.590;23.364;2023-04-16T17:11:47;90896.44;;;12.10
71807;BMP280;59655;42.590;23.364;2023-04-16T17:14:15;90899.25;;;12.02
71807;BMP280;59655;42.590;23.364;2023-04-16T17:16:46;90898.84;;;11.69
71807;BMP280;59655;42.590;23.364;2023-04-16T17:19:13;90892.81;;;11.58
71807;BMP280;59655;42.590;23.364;2023-04-16T17:21:39;90896.16;;;11.59
71807;BMP280;59655;42.590;23.364;2023-04-16T17:24:05;90893.09;;;11.53
71807;BMP280;59655;42.590;23.364;2023-04-16T17:26:30;90894.19;;;11.50
71807;BMP280;59655;42.590;23.364;2023-04-16T17:28:56;90895.91;;;11.28
71807;BMP280;59655;42.590;23.364;2023-04-16T17:31:23;90892.97;;;11.24
71807;BMP280;59655;42.590;23.364;2023-04-16T17:33:51;90894.94;;;11.23
71807;BMP280;59655;42.590;23.364;2023-04-16T17:36:17;90888.91;;;11.23
71807;BMP280;59655;42.590;23.364;2023-04-16T17:38:47;90890.59;;;11.28
71807;BMP280;59655;42.590;23.364;2023-04-16T17:41:12;90893.78;;;11.53
71807;BMP280;59655;42.590;23.364;2023-04-16T17:43:37;90894.78;;;11.58
71807;BMP280;59655;42.590;23.364;2023-04-16T17:46:03;90890.63;;;11.65
71807;BMP280;59655;42.590;23.364;2023-04-16T17:48:29;90896.53;;;11.46
71807;BMP280;59655;42.590;23.364;2023-04-16T17:50:54;90890.09;;;11.39
71807;BMP280;59655;42.590;23.364;2023-04-16T17:53:19;90891.31;;;11.28
71807;BMP280;59655;42.590;23.364;2023-04-16T17:55:52;90896.84;;;11.40
71807;BMP280;59655;42.590;23.364;2023-04-16T17:58:18;90899.94;;;11.46
71807;BMP280;59655;42.590;23.364;2023-04-16T18:00:43;90905.50;;;11.50
71807;BMP280;59655;42.590;23.364;2023-04-16T18:03:11;90904.41;;;11.53
71807;BMP280;59655;42.590;23.364;2023-04-16T18:05:38;90909.72;;;11.53
71807;BMP280;59655;42.590;23.364;2023-04-16T18:08:03;90901.06;;;11.53
71807;BMP280;59655;42.590;23.364;2023-04-16T18:10:29;90905.97;;;11.56
71807;BMP280;59655;42.590;23.364;2023-04-16T18:12:57;90904.28;;;11.61
71807;BMP280;59655;42.590;23.364;2023-04-16T18:15:22;90907.50;;;11.59
71807;BMP280;59655;42.590;23.364;2023-04-16T18:17:47;90899.09;;;11.53
71807;BMP280;59655;42.590;23.364;2023-04-16T18:20:13;90900.06;;;11.48
71807;BMP280;59655;42.590;23.364;2023-04-16T18:22:41;90904.97;;;11.42
71807;BMP280;59655;42.590;23.364;2023-04-16T18:25:06;90895.84;;;11.45
71807;BMP280;59655;42.590;23.364;2023-04-16T18:27:32;90910.94;;;11.43
71807;BMP280;59655;42.590;23.364;2023-04-16T18:29:57;90908.97;;;11.43
71807;BMP280;59655;42.590;23.364;2023-04-16T18:32:23;90904.97;;;11.42
71807;BMP280;59655;42.590;23.364;2023-04-16T18:34:48;90901.97;;;11.38
71807;BMP280;59655;42.590;23.364;2023-04-16T18:37:13;90914.34;;;11.53
71807;BMP280;59655;42.590;23.364;2023-04-16T18:39:39;90907.22;;;11.55
71807;BMP280;59655;42.590;23.364;2023-04-16T18:42:05;90904.00;;;11.57
71807;BMP280;59655;42.590;23.364;2023-04-16T18:44:31;90901.59;;;11.51
71807;BMP280;59655;42.590;23.364;2023-04-16T18:46:56;90904.69;;;11.21
71807;BMP280;59655;42.590;23.364;2023-04-16T18:49:22;90909.16;;;11.18
71807;BMP280;59655;42.590;23.364;2023-04-16T18:51:47;90903.66;;;11.06
71807;BMP280;59655;42.590;23.364;2023-04-16T18:54:12;90901.31;;;11.10
71807;BMP280;59655;42.590;23.364;2023-04-16T18:56:38;90909.19;;;11.28
71807;BMP280;59655;42.590;23.364;2023-04-16T18:59:03;90910.81;;;11.13
71807;BMP280;59655;42.590;23.364;2023-04-16T19:01:29;90916.88;;;11.24
71807;BMP280;59655;42.590;23.364;2023-04-16T19:03:54;90909.38;;;11.03
71807;BMP280;59655;42.590;23.364;2023-04-16T19:06:20;90909.16;;;11.18
71807;BMP280;59655;42.590;23.364;2023-04-16T19:08:45;90903.75;;;11.26
71807;BMP280;59655;42.590;23.364;2023-04-16T19:11:10;90905.44;;;11.31
71807;BMP280;59655;42.590;23.364;2023-04-16T19:13:36;90911.34;;;11.39
71807;BMP280;59655;42.590;23.364;2023-04-16T19:16:02;90912.34;;;11.44
71807;BMP280;59655;42.590;23.364;2023-04-16T19:18:30;90913.59;;;11.43
71807;BMP280;59655;42.590;23.364;2023-04-16T19:20:59;90912.22;;;11.42
71807;BMP280;59655;42.590;23.364;2023-04-16T19:23:25;90910.66;;;11.38
71807;BMP280;59655;42.590;23.364;2023-04-16T19:25:51;90905.78;;;11.45
71807;BMP280;59655;42.590;23.364;2023-04-16T19:28:16;90904.81;;;11.50
71807;BMP280;59655;42.590;23.364;2023-04-16T19:30:42;90899.94;;;11.46
71807;BMP280;59655;42.590;23.364;2023-04-16T19:33:11;90898.66;;;11.47
71807;BMP280;59655;42.590;23.364;2023-04-16T19:35:36;90892.81;;;11.49
71807;BMP280;59655;42.590;23.364;2023-04-16T19:38:01;90896.72;;;11.48
71807;BMP280;59655;42.590;23.364;2023-04-16T19:40:27;90890.16;;;11.49
71807;BMP280;59655;42.590;23.364;2023-04-16T19:42:52;90890.97;;;11.51
71807;BMP280;59655;42.590;23.364;2023-04-16T19:45:18;90893.03;;;11.43
71807;BMP280;59655;42.590;23.364;2023-04-16T19:47:49;90886.50;;;11.44
71807;BMP280;59655;42.590;23.364;2023-04-16T19:50:15;90891.09;;;11.44
71807;BMP280;59655;42.590;23.364;2023-04-16T19:52:40;90896.28;;;11.42
71807;BMP280;59655;42.590;23.364;2023-04-16T19:55:06;90891.22;;;11.46
71807;BMP280;59655;42.590;23.364;2023-04-16T19:57:32;90902.03;;;11.48
71807;BMP280;59655;42.590;23.364;2023-04-16T19:59:57;90897.41;;;11.48
71807;BMP280;59655;42.590;23.364;2023-04-16T20:02:22;90896.00;;;11.47
71807;BMP280;59655;42.590;23.364;2023-04-16T20:04:48;90900.19;;;11.50
71807;BMP280;59655;42.590;23.364;2023-04-16T20:07:13;90896.72;;;11.48
71807;BMP280;59655;42.590;23.364;2023-04-16T20:09:39;90897.66;;;11.43
71807;BMP280;59655;42.590;23.364;2023-04-16T20:12:05;90895.97;;;11.37
71807;BMP280;59655;42.590;23.364;2023-04-16T20:14:30;90897.91;;;11.37
71807;BMP280;59655;42.590;23.364;2023-04-16T20:16:55;90900.47;;;11.45
71807;BMP280;59655;42.590;23.364;2023-04-16T20:19:21;90899.06;;;11.44
71807;BMP280;59655;42.590;23.364;2023-04-16T20:21:50;90900.63;;;11.47
71807;BMP280;59655;42.590;23.364;2023-04-16T20:24:16;90898.78;;;11.39
71807;BMP280;59655;42.590;23.364;2023-04-16T20:26:41;90892.06;;;11.38
71807;BMP280;59655;42.590;23.364;2023-04-16T20:29:07;90896.13;;;11.39
71807;BMP280;59655;42.590;23.364;2023-04-16T20:31:33;90891.31;;;11.28
71807;BMP280;59655;42.590;23.364;2023-04-16T20:33:59;90885.91;;;11.09
71807;BMP280;59655;42.590;23.364;2023-04-16T20:36:24;90889.63;;;11.23
71807;BMP280;59655;42.590;23.364;2023-04-16T20:38:50;90889.91;;;11.27
71807;BMP280;59655;42.590;23.364;2023-04-16T20:41:16;90892.63;;;11.37
71807;BMP280;59655;42.590;23.364;2023-04-16T20:43:49;90892.47;;;11.35
71807;BMP280;59655;42.590;23.364;2023-04-16T20:46:17;90888.16;;;11.39
71807;BMP280;59655;42.590;23.364;2023-04-16T20:48:43;90898.78;;;11.39
71807;BMP280;59655;42.590;23.364;2023-04-16T20:51:08;90893.75;;;11.44
71807;BMP280;59655;42.590;23.364;2023-04-16T20:53:34;90895.31;;;11.47
71807;BMP280;59655;42.590;23.364;2023-04-16T20:56:03;90890.53;;;11.45
71807;BMP280;59655;42.590;23.364;2023-04-16T20:58:29;90892.50;;;11.45
71807;BMP280;59655;42.590;23.364;2023-04-16T21:00:55;90891.22;;;11.46
71807;BMP280;59655;42.590;23.364;2023-04-16T21:03:21;90894.47;;;11.44
71807;BMP280;59655;42.590;23.364;2023-04-16T21:05:50;90891.97;;;11.46
71807;BMP280;59655;42.590;23.364;2023-04-16T21:08:18;90884.53;;;11.45
71807;BMP280;59655;42.590;23.364;2023-04-16T21:10:44;90886.66;;;11.46
71807;BMP280;59655;42.590;23.364;2023-04-16T21:13:09;90883.84;;;11.44
71807;BMP280;59655;42.590;23.364;2023-04-16T21:15:39;90885.91;;;11.46
71807;BMP280;59655;42.590;23.364;2023-04-16T21:18:06;90875.75;;;11.42
71807;BMP280;59655;42.590;23.364;2023-04-16T21:20:31;90876.41;;;11.43
71807;BMP280;59655;42.590;23.364;2023-04-16T21:22:57;90882.41;;;11.43
71807;BMP280;59655;42.590;23.364;2023-04-16T21:25:23;90870.28;;;11.40
71807;BMP280;59655;42.590;23.364;2023-04-16T21:27:49;90877.69;;;11.42
71807;BMP280;59655;42.590;23.364;2023-04-16T21:30:15;90881.72;;;11.43
71807;BMP280;59655;42.590;23.364;2023-04-16T21:32:41;90878.78;;;11.38
71807;BMP280;59655;42.590;23.364;2023-04-16T21:35:07;90878.25;;;11.40
71807;BMP280;59655;42.590;23.364;2023-04-16T21:37:33;90878.94;;;11.40
71807;BMP280;59655;42.590;23.364;2023-04-16T21:39:58;90870.97;;;11.40
71807;BMP280;59655;42.590;23.364;2023-04-16T21:42:24;90875.16;;;11.44
71807;BMP280;59655;42.590;23.364;2023-04-16T21:44:49;90875.88;;;11.44
71807;BMP280;59655;42.590;23.364;2023-04-16T21:47:14;90881.19;;;11.44
71807;BMP280;59655;42.590;23.364;2023-04-16T21:49:40;90878.53;;;11.44
71807;BMP280;59655;42.590;23.364;2023-04-16T21:52:07;90882.28;;;11.41
71807;BMP280;59655;42.590;23.364;2023-04-16T21:54:40;90881.19;;;11.44
71807;BMP280;59655;42.590;23.364;2023-04-16T21:57:06;90881.72;;;11.43
71807;BMP280;59655;42.590;23.364;2023-04-16T21:59:31;90884.38;;;11.43
71807;BMP280;59655;42.590;23.364;2023-04-16T22:01:57;90877.69;;;11.42
71807;BMP280;59655;42.590;23.364;2023-04-16T22:04:22;90874.31;;;11.41
71807;BMP280;59655;42.590;23.364;2023-04-16T22:06:51;90876.69;;;11.37
71807;BMP280;59655;42.590;23.364;2023-04-16T22:09:20;90875.13;;;11.34
71807;BMP280;59655;42.590;23.364;2023-04-16T22:11:45;90872.28;;;11.22
71807;BMP280;59655;42.590;23.364;2023-04-16T22:14:11;90871.84;;;11.16
71807;BMP280;59655;42.590;23.364;2023-04-16T22:16:38;90877.69;;;11.14
71807;BMP280;59655;42.590;23.364;2023-04-16T22:19:04;90870.84;;;11.11
71807;BMP280;59655;42.590;23.364;2023-04-16T22:21:29;90868.22;;;11.21
71807;BMP280;59655;42.590;23.364;2023-04-16T22:23:55;90869.34;;;11.28
71807;BMP280;59655;42.590;23.364;2023-04-16T22:26:21;90864.06;;;11.28
71807;BMP280;59655;42.590;23.364;2023-04-16T22:28:46;90862.53;;;11.25
71807;BMP280;59655;42.590;23.364;2023-04-16T22:31:11;90858.03;;;11.27
71807;BMP280;59655;42.590;23.364;2023-04-16T22:33:37;90859.31;;;11.26
71807;BMP280;59655;42.590;23.364;2023-04-16T22:36:03;90861.53;;;11.30
71807;BMP280;59655;42.590;23.364;2023-04-16T22:38:28;90855.53;;;11.29
71807;BMP280;59655;42.590;23.364;2023-04-16T22:40:53;90856.25;;;11.30
71807;BMP280;59655;42.590;23.364;2023-04-16T22:43:19;90861.50;;;11.20
71807;BMP280;59655;42.590;23.364;2023-04-16T22:45:44;90852.31;;;11.21
71807;BMP280;59655;42.590;23.364;2023-04-16T22:48:10;90845.56;;;11.20
71807;BMP280;59655;42.590;23.364;2023-04-16T22:50:36;90846.28;;;11.21
71807;BMP280;59655;42.590;23.364;2023-04-16T22:53:01;90847.53;;;11.19
71807;BMP280;59655;42.590;23.364;2023-04-16T22:55:26;90844.88;;;11.19
71807;BMP280;59655;42.590;23.364;2023-04-16T22:57:52;90847.69;;;11.22
71807;BMP280;59655;42.590;23.364;2023-04-16T23:00:17;90845.72;;;11.22
71807;BMP280;59655;42.590;23.364;2023-04-16T23:02:43;90840.63;;;11.07
71807;BMP280;59655;42.590;23.364;2023-04-16T23:05:09;90847.38;;;11.08
71807;BMP280;59655;42.590;23.364;2023-04-16T23:07:35;90835.88;;;11.05
71807;BMP280;59655;42.590;23.364;2023-04-16T23:10:00;90837.59;;;11.10
71807;BMP280;59655;42.590;23.364;2023-04-16T23:12:26;90831.88;;;11.14
71807;BMP280;59655;42.590;23.364;2023-04-16T23:14:51;90842.78;;;11.18
71807;BMP280;59655;42.590;23.364;2023-04-16T23:17:17;90826.88;;;11.18
71807;BMP280;59655;42.590;23.364;2023-04-16T23:19:42;90829.53;;;11.18
71807;BMP280;59655;42.590;23.364;2023-04-16T23:22:07;90830.91;;;11.19
71807;BMP280;59655;42.590;23.364;2023-04-16T23:24:33;90826.16;;;11.17
71807;BMP280;59655;42.590;23.364;2023-04-16T23:26:58;90835.53;;;11.18
71807;BMP280;59655;42.590;23.364;2023-04-16T23:29:25;90830.22;;;11.18
71807;BMP280;59655;42.590;23.364;2023-04-16T23:31:50;90827.00;;;11.20
71807;BMP280;59655;42.590;23.364;2023-04-16T23:34:15;90827.41;;;11.16
71807;BMP280;59655;42.590;23.364;2023-04-16T23:36:41;90829.38;;;11.16
71807;BMP280;59655;42.590;23.364;2023-04-16T23:39:06;90825.03;;;11.21
71807;BMP280;59655;42.590;23.364;2023-04-16T23:41:32;90824.47;;;11.22
71807;BMP280;59655;42.590;23.364;2023-04-16T23:43:57;90819.88;;;11.23
71807;BMP280;59655;42.590;23.364;2023-04-16T23:46:23;90820.97;;;11.19
71807;BMP280;59655;42.590;23.364;2023-04-16T23:48:48;90822.09;;;11.16
71807;BMP280;59655;42.590;23.364;2023-04-16T23:51:13;90816.94;;;11.18
71807;BMP280;59655;42.590;23.364;2023-04-16T23:53:39;90815.66;;;11.19
71807;BMP280;59655;42.590;23.364;2023-04-16T23:56:06;90810.38;;;11.19
71807;BMP280;59655;42.590;23.364;2023-04-16T23:58:31;90808.97;;;11.18
